sensor_id;sensor_type;location;lat;lon;timestamp;P1;durP1;ratioP1;P2;durP2;ratioP2
64907;SDS011;64365;-1.756;110.040;2022-12-11T00:01:07;79.68;;;34.10;;
64907;SDS011;64365;-1.756;110.040;2022-12-11T00:03:35;107.68;;;37.63;;
64907;SDS011;64365;-1.756;110.040;2022-12-11T00:06:03;95.75;;;33.53;;
64907;SDS011;64365;-1.756;110.040;2022-12-11T00:08:31;97.97;;;37.20;;
64907;SDS011;64365;-1.756;110.040;2022-12-11T00:10:59;97.40;;;37.35;;
64907;SDS011;64365;-1.756;110.040;2022-12-11T00:13:25;92.13;;;36.72;;
64907;SDS011;64365;-1.756;110.040;2022-12-11T00:15:54;86.88;;;32.42;;
64907;SDS011;64365;-1.756;110.040;2022-12-11T00:18:23;80.30;;;32.25;;
64907;SDS011;64365;-1.756;110.040;2022-12-11T00:20:49;93.75;;;36.55;;
64907;SDS011;64365;-1.756;110.040;2022-12-11T00:23:16;95.85;;;35.83;;
64907;SDS011;64365;-1.756;110.040;2022-12-11T00:25:43;93.20;;;36.30;;
64907;SDS011;64365;-1.756;110.040;2022-12-11T00:28:11;87.28;;;36.58;;
64907;SDS011;64365;-1.756;110.040;2022-12-11T00:30:38;94.75;;;37.65;;
64907;SDS011;64365;-1.756;110.040;2022-12-11T00:33:07;93.03;;;38.70;;
64907;SDS011;64365;-1.756;110.040;2022-12-11T00:35:36;97.75;;;36.45;;
64907;SDS011;64365;-1.756;110.040;2022-12-11T00:38:03;106.20;;;38.38;;
64907;SDS011;64365;-1.756;110.040;2022-12-11T00:40:32;92.38;;;36.38;;
64907;SDS011;64365;-1.756;110.040;2022-12-11T00:42:58;95.78;;;35.17;;
64907;SDS011;64365;-1.756;110.040;2022-12-11T00:45:25;97.20;;;37.03;;
64907;SDS011;64365;-1.756;110.040;2022-12-11T00:47:52;84.53;;;36.45;;
64907;SDS011;64365;-1.756;110.040;2022-12-11T00:50:19;76.40;;;34.40;;
64907;SDS011;64365;-1.756;110.040;2022-12-11T00:52:46;88.35;;;35.50;;
64907;SDS011;64365;-1.756;110.040;2022-12-11T00:55:13;80.75;;;34.85;;
64907;SDS011;64365;-1.756;110.040;2022-12-11T00:57:40;87.50;;;36.25;;
64907;SDS011;64365;-1.756;110.040;2022-12-11T01:00:07;84.68;;;35.33;;
64907;SDS011;64365;-1.756;110.040;2022-12-11T01:02:34;87.63;;;35.63;;
64907;SDS011;64365;-1.756;110.040;2022-12-11T01:05:01;79.53;;;31.83;;
64907;SDS011;64365;-1.756;110.040;2022-12-11T01:07:29;75.50;;;32.42;;
64907;SDS011;64365;-1.756;110.040;2022-12-11T01:09:56;74.75;;;34.38;;
64907;SDS011;64365;-1.756;110.040;2022-12-11T01:15:07;75.43;;;33.20;;
64907;SDS011;64365;-1.756;110.040;2022-12-11T01:17:35;71.80;;;32.70;;
64907;SDS011;64365;-1.756;110.040;2022-12-11T01:20:02;81.35;;;33.47;;
64907;SDS011;64365;-1.756;110.040;2022-12-11T01:22:31;80.75;;;34.53;;
64907;SDS011;64365;-1.756;110.040;2022-12-11T01:24:57;90.35;;;37.40;;
64907;SDS011;64365;-1.756;110.040;2022-12-11T01:27:24;74.78;;;33.95;;
64907;SDS011;64365;-1.756;110.040;2022-12-11T01:29:51;84.82;;;36.17;;
64907;SDS011;64365;-1.756;110.040;2022-12-11T01:32:17;86.78;;;36.10;;
64907;SDS011;64365;-1.756;110.040;2022-12-11T01:34:44;85.53;;;36.83;;
64907;SDS011;64365;-1.756;110.040;2022-12-11T01:37:11;86.55;;;37.30;;
64907;SDS011;64365;-1.756;110.040;2022-12-11T01:39:39;82.40;;;34.03;;
64907;SDS011;64365;-1.756;110.040;2022-12-11T01:42:06;86.68;;;36.00;;
64907;SDS011;64365;-1.756;110.040;2022-12-11T01:47:49;81.90;;;33.55;;
64907;SDS011;64365;-1.756;110.040;2022-12-11T01:50:17;80.28;;;32.67;;
64907;SDS011;64365;-1.756;110.040;2022-12-11T01:52:47;74.22;;;33.03;;
64907;SDS011;64365;-1.756;110.040;2022-12-11T01:55:16;77.10;;;33.00;;
64907;SDS011;64365;-1.756;110.040;2022-12-11T01:57:46;72.35;;;32.25;;
64907;SDS011;64365;-1.756;110.040;2022-12-11T02:00:15;78.97;;;32.95;;
64907;SDS011;64365;-1.756;110.040;2022-12-11T02:02:42;76.40;;;35.28;;
64907;SDS011;64365;-1.756;110.040;2022-12-11T02:05:09;80.03;;;34.15;;
64907;SDS011;64365;-1.756;110.040;2022-12-11T02:07:36;82.45;;;36.00;;
64907;SDS011;64365;-1.756;110.040;2022-12-11T02:10:06;73.47;;;33.67;;
64907;SDS011;64365;-1.756;110.040;2022-12-11T02:12:38;67.40;;;32.22;;
64907;SDS011;64365;-1.756;110.040;2022-12-11T02:15:14;77.10;;;34.15;;
64907;SDS011;64365;-1.756;110.040;2022-12-11T02:17:46;74.97;;;32.83;;
64907;SDS011;64365;-1.756;110.040;2022-12-11T02:20:17;79.43;;;33.97;;
64907;SDS011;64365;-1.756;110.040;2022-12-11T02:22:54;81.38;;;30.80;;
64907;SDS011;64365;-1.756;110.040;2022-12-11T02:25:31;72.15;;;31.55;;
64907;SDS011;64365;-1.756;110.040;2022-12-11T02:28:10;81.60;;;34.70;;
64907;SDS011;64365;-1.756;110.040;2022-12-11T02:30:45;78.63;;;33.70;;
64907;SDS011;64365;-1.756;110.040;2022-12-11T02:33:15;75.20;;;33.30;;
64907;SDS011;64365;-1.756;110.040;2022-12-11T02:35:46;76.80;;;33.42;;
64907;SDS011;64365;-1.756;110.040;2022-12-11T02:38:15;82.68;;;33.55;;
64907;SDS011;64365;-1.756;110.040;2022-12-11T02:40:48;86.72;;;33.88;;
64907;SDS011;64365;-1.756;110.040;2022-12-11T02:43:19;77.80;;;35.03;;
64907;SDS011;64365;-1.756;110.040;2022-12-11T02:45:48;75.93;;;32.50;;
64907;SDS011;64365;-1.756;110.040;2022-12-11T02:48:17;70.63;;;31.88;;
64907;SDS011;64365;-1.756;110.040;2022-12-11T02:50:48;69.55;;;31.15;;
64907;SDS011;64365;-1.756;110.040;2022-12-11T02:53:19;62.97;;;29.48;;
64907;SDS011;64365;-1.756;110.040;2022-12-11T02:55:50;60.28;;;29.42;;
64907;SDS011;64365;-1.756;110.040;2022-12-11T02:58:26;54.97;;;27.27;;
64907;SDS011;64365;-1.756;110.040;2022-12-11T03:00:55;64.05;;;30.10;;
64907;SDS011;64365;-1.756;110.040;2022-12-11T03:03:22;54.00;;;26.42;;
64907;SDS011;64365;-1.756;110.040;2022-12-11T03:05:49;51.15;;;25.00;;
64907;SDS011;64365;-1.756;110.040;2022-12-11T03:08:16;60.80;;;25.52;;
64907;SDS011;64365;-1.756;110.040;2022-12-11T03:10:42;58.72;;;28.73;;
64907;SDS011;64365;-1.756;110.040;2022-12-11T03:13:09;52.20;;;26.63;;
64907;SDS011;64365;-1.756;110.040;2022-12-11T03:15:40;59.60;;;27.30;;
64907;SDS011;64365;-1.756;110.040;2022-12-11T03:18:17;54.33;;;24.98;;
64907;SDS011;64365;-1.756;110.040;2022-12-11T03:20:55;60.42;;;29.60;;
64907;SDS011;64365;-1.756;110.040;2022-12-11T03:23:31;55.65;;;25.38;;
64907;SDS011;64365;-1.756;110.040;2022-12-11T03:26:00;50.10;;;24.40;;
64907;SDS011;64365;-1.756;110.040;2022-12-11T03:28:30;50.50;;;24.02;;
64907;SDS011;64365;-1.756;110.040;2022-12-11T03:31:04;54.78;;;26.33;;
64907;SDS011;64365;-1.756;110.040;2022-12-11T03:36:05;49.95;;;24.52;;
64907;SDS011;64365;-1.756;110.040;2022-12-11T03:38:36;51.65;;;24.58;;
64907;SDS011;64365;-1.756;110.040;2022-12-11T03:41:06;52.00;;;24.30;;
64907;SDS011;64365;-1.756;110.040;2022-12-11T03:43:35;44.75;;;21.80;;
64907;SDS011;64365;-1.756;110.040;2022-12-11T03:46:05;45.20;;;24.60;;
64907;SDS011;64365;-1.756;110.040;2022-12-11T03:48:35;45.83;;;22.38;;
64907;SDS011;64365;-1.756;110.040;2022-12-11T03:51:05;43.92;;;21.92;;
64907;SDS011;64365;-1.756;110.040;2022-12-11T03:53:33;46.28;;;23.20;;
64907;SDS011;64365;-1.756;110.040;2022-12-11T03:56:01;43.35;;;21.52;;
64907;SDS011;64365;-1.756;110.040;2022-12-11T03:58:29;41.75;;;22.58;;
64907;SDS011;64365;-1.756;110.040;2022-12-11T04:00:56;43.30;;;21.35;;
64907;SDS011;64365;-1.756;110.040;2022-12-11T04:03:24;40.38;;;21.85;;
64907;SDS011;64365;-1.756;110.040;2022-12-11T04:05:51;42.42;;;21.73;;
64907;SDS011;64365;-1.756;110.040;2022-12-11T04:08:21;41.00;;;20.92;;
64907;SDS011;64365;-1.756;110.040;2022-12-11T04:10:49;41.20;;;21.85;;
64907;SDS011;64365;-1.756;110.040;2022-12-11T04:13:37;40.17;;;20.80;;
64907;SDS011;64365;-1.756;110.040;2022-12-11T04:16:04;43.53;;;21.02;;
64907;SDS011;64365;-1.756;110.040;2022-12-11T04:18:32;40.83;;;21.45;;
64907;SDS011;64365;-1.756;110.040;2022-12-11T04:21:16;41.00;;;20.80;;
64907;SDS011;64365;-1.756;110.040;2022-12-11T04:24:01;39.88;;;20.95;;
64907;SDS011;64365;-1.756;110.040;2022-12-11T04:26:43;42.40;;;20.30;;
64907;SDS011;64365;-1.756;110.040;2022-12-11T04:29:10;42.83;;;21.55;;
64907;SDS011;64365;-1.756;110.040;2022-12-11T04:31:37;38.40;;;19.60;;
64907;SDS011;64365;-1.756;110.040;2022-12-11T04:34:05;43.45;;;21.75;;
64907;SDS011;64365;-1.756;110.040;2022-12-11T04:36:32;38.08;;;20.90;;
64907;SDS011;64365;-1.756;110.040;2022-12-11T04:39:00;38.22;;;20.25;;
64907;SDS011;64365;-1.756;110.040;2022-12-11T04:41:27;39.17;;;21.48;;
64907;SDS011;64365;-1.756;110.040;2022-12-11T04:43:54;41.60;;;20.60;;
64907;SDS011;64365;-1.756;110.040;2022-12-11T04:46:21;39.72;;;20.45;;
64907;SDS011;64365;-1.756;110.040;2022-12-11T04:48:49;39.67;;;19.80;;
64907;SDS011;64365;-1.756;110.040;2022-12-11T04:51:18;39.72;;;23.13;;
64907;SDS011;64365;-1.756;110.040;2022-12-11T04:53:45;41.25;;;21.88;;
64907;SDS011;64365;-1.756;110.040;2022-12-11T04:56:12;40.15;;;20.70;;
64907;SDS011;64365;-1.756;110.040;2022-12-11T04:58:40;38.30;;;21.40;;
64907;SDS011;64365;-1.756;110.040;2022-12-11T05:01:08;41.00;;;21.95;;
64907;SDS011;64365;-1.756;110.040;2022-12-11T05:03:35;39.33;;;20.13;;
64907;SDS011;64365;-1.756;110.040;2022-12-11T05:06:02;36.58;;;20.27;;
64907;SDS011;64365;-1.756;110.040;2022-12-11T05:08:32;39.25;;;22.15;;
64907;SDS011;64365;-1.756;110.040;2022-12-11T05:11:01;40.30;;;21.00;;
64907;SDS011;64365;-1.756;110.040;2022-12-11T05:13:30;39.30;;;19.83;;
64907;SDS011;64365;-1.756;110.040;2022-12-11T05:15:57;43.30;;;21.13;;
64907;SDS011;64365;-1.756;110.040;2022-12-11T05:18:24;41.70;;;20.30;;
64907;SDS011;64365;-1.756;110.040;2022-12-11T05:20:54;41.42;;;21.85;;
64907;SDS011;64365;-1.756;110.040;2022-12-11T05:23:21;38.38;;;21.33;;
64907;SDS011;64365;-1.756;110.040;2022-12-11T05:25:51;45.20;;;21.58;;
64907;SDS011;64365;-1.756;110.040;2022-12-11T05:28:18;46.78;;;21.60;;
64907;SDS011;64365;-1.756;110.040;2022-12-11T05:30:45;42.55;;;21.58;;
64907;SDS011;64365;-1.756;110.040;2022-12-11T05:33:12;38.53;;;19.95;;
64907;SDS011;64365;-1.756;110.040;2022-12-11T05:35:44;43.50;;;22.73;;
64907;SDS011;64365;-1.756;110.040;2022-12-11T05:38:12;41.78;;;21.45;;
64907;SDS011;64365;-1.756;110.040;2022-12-11T05:40:39;41.08;;;21.05;;
64907;SDS011;64365;-1.756;110.040;2022-12-11T05:43:07;39.30;;;21.65;;
64907;SDS011;64365;-1.756;110.040;2022-12-11T05:45:33;42.83;;;21.83;;
64907;SDS011;64365;-1.756;110.040;2022-12-11T05:48:00;43.85;;;24.83;;
64907;SDS011;64365;-1.756;110.040;2022-12-11T05:50:27;46.95;;;23.58;;
64907;SDS011;64365;-1.756;110.040;2022-12-11T05:52:53;42.22;;;23.60;;
64907;SDS011;64365;-1.756;110.040;2022-12-11T05:55:20;48.55;;;24.85;;
64907;SDS011;64365;-1.756;110.040;2022-12-11T05:57:47;45.13;;;23.67;;
64907;SDS011;64365;-1.756;110.040;2022-12-11T06:00:15;46.00;;;22.80;;
64907;SDS011;64365;-1.756;110.040;2022-12-11T06:02:41;44.42;;;23.20;;
64907;SDS011;64365;-1.756;110.040;2022-12-11T06:05:08;44.72;;;22.25;;
64907;SDS011;64365;-1.756;110.040;2022-12-11T06:07:35;46.40;;;24.48;;
64907;SDS011;64365;-1.756;110.040;2022-12-11T06:10:01;44.40;;;22.63;;
64907;SDS011;64365;-1.756;110.040;2022-12-11T06:12:28;46.47;;;25.10;;
64907;SDS011;64365;-1.756;110.040;2022-12-11T06:14:55;43.78;;;21.85;;
64907;SDS011;64365;-1.756;110.040;2022-12-11T06:17:23;48.03;;;24.73;;
64907;SDS011;64365;-1.756;110.040;2022-12-11T06:19:50;45.85;;;23.42;;
64907;SDS011;64365;-1.756;110.040;2022-12-11T06:22:16;44.80;;;24.08;;
64907;SDS011;64365;-1.756;110.040;2022-12-11T06:24:43;47.70;;;26.50;;
64907;SDS011;64365;-1.756;110.040;2022-12-11T06:27:09;47.60;;;24.05;;
64907;SDS011;64365;-1.756;110.040;2022-12-11T06:29:36;47.92;;;24.60;;
64907;SDS011;64365;-1.756;110.040;2022-12-11T06:32:03;45.72;;;22.65;;
64907;SDS011;64365;-1.756;110.040;2022-12-11T06:34:32;47.33;;;24.15;;
64907;SDS011;64365;-1.756;110.040;2022-12-11T06:36:58;49.08;;;25.23;;
64907;SDS011;64365;-1.756;110.040;2022-12-11T06:39:25;43.10;;;22.23;;
64907;SDS011;64365;-1.756;110.040;2022-12-11T06:41:52;43.15;;;23.02;;
64907;SDS011;64365;-1.756;110.040;2022-12-11T06:44:18;47.92;;;24.20;;
64907;SDS011;64365;-1.756;110.040;2022-12-11T06:46:45;41.92;;;23.30;;
64907;SDS011;64365;-1.756;110.040;2022-12-11T06:49:12;43.25;;;22.65;;
64907;SDS011;64365;-1.756;110.040;2022-12-11T06:51:39;47.75;;;25.02;;
64907;SDS011;64365;-1.756;110.040;2022-12-11T06:54:06;45.40;;;24.27;;
64907;SDS011;64365;-1.756;110.040;2022-12-11T06:56:33;47.78;;;24.23;;
64907;SDS011;64365;-1.756;110.040;2022-12-11T06:59:00;43.50;;;23.15;;
64907;SDS011;64365;-1.756;110.040;2022-12-11T07:01:27;45.33;;;23.30;;
64907;SDS011;64365;-1.756;110.040;2022-12-11T07:03:54;43.53;;;22.23;;
64907;SDS011;64365;-1.756;110.040;2022-12-11T07:06:22;44.90;;;24.35;;
64907;SDS011;64365;-1.756;110.040;2022-12-11T07:08:51;45.42;;;22.73;;
64907;SDS011;64365;-1.756;110.040;2022-12-11T07:11:19;45.85;;;23.23;;
64907;SDS011;64365;-1.756;110.040;2022-12-11T07:13:46;44.15;;;22.20;;
64907;SDS011;64365;-1.756;110.040;2022-12-11T07:16:13;48.30;;;24.30;;
64907;SDS011;64365;-1.756;110.040;2022-12-11T07:18:42;46.13;;;24.15;;
64907;SDS011;64365;-1.756;110.040;2022-12-11T07:21:12;44.38;;;23.25;;
64907;SDS011;64365;-1.756;110.040;2022-12-11T07:23:39;38.63;;;21.17;;
64907;SDS011;64365;-1.756;110.040;2022-12-11T07:26:08;45.60;;;23.15;;
64907;SDS011;64365;-1.756;110.040;2022-12-11T07:28:36;46.97;;;22.95;;
64907;SDS011;64365;-1.756;110.040;2022-12-11T07:31:04;45.58;;;21.85;;
64907;SDS011;64365;-1.756;110.040;2022-12-11T07:33:31;46.55;;;24.35;;
64907;SDS011;64365;-1.756;110.040;2022-12-11T07:35:59;41.63;;;20.17;;
64907;SDS011;64365;-1.756;110.040;2022-12-11T07:38:26;45.38;;;24.50;;
64907;SDS011;64365;-1.756;110.040;2022-12-11T07:40:53;51.83;;;25.65;;
64907;SDS011;64365;-1.756;110.040;2022-12-11T07:43:21;52.03;;;23.90;;
64907;SDS011;64365;-1.756;110.040;2022-12-11T07:45:47;48.83;;;23.27;;
64907;SDS011;64365;-1.756;110.040;2022-12-11T07:48:14;51.80;;;24.17;;
64907;SDS011;64365;-1.756;110.040;2022-12-11T07:50:40;52.33;;;26.17;;
64907;SDS011;64365;-1.756;110.040;2022-12-11T07:53:07;49.47;;;26.15;;
64907;SDS011;64365;-1.756;110.040;2022-12-11T07:55:33;49.15;;;24.10;;
64907;SDS011;64365;-1.756;110.040;2022-12-11T07:58:00;50.58;;;24.42;;
64907;SDS011;64365;-1.756;110.040;2022-12-11T08:00:28;48.47;;;24.45;;
64907;SDS011;64365;-1.756;110.040;2022-12-11T08:02:55;49.20;;;24.50;;
64907;SDS011;64365;-1.756;110.040;2022-12-11T08:05:21;50.38;;;26.00;;
64907;SDS011;64365;-1.756;110.040;2022-12-11T08:07:48;48.03;;;24.25;;
64907;SDS011;64365;-1.756;110.040;2022-12-11T08:10:15;53.63;;;25.73;;
64907;SDS011;64365;-1.756;110.040;2022-12-11T08:12:42;46.83;;;23.20;;
64907;SDS011;64365;-1.756;110.040;2022-12-11T08:15:09;47.55;;;23.75;;
64907;SDS011;64365;-1.756;110.040;2022-12-11T08:17:37;54.13;;;26.38;;
64907;SDS011;64365;-1.756;110.040;2022-12-11T08:20:04;47.67;;;25.98;;
64907;SDS011;64365;-1.756;110.040;2022-12-11T08:22:32;47.20;;;24.65;;
64907;SDS011;64365;-1.756;110.040;2022-12-11T08:24:59;45.30;;;23.73;;
64907;SDS011;64365;-1.756;110.040;2022-12-11T08:27:26;49.75;;;24.63;;
64907;SDS011;64365;-1.756;110.040;2022-12-11T08:29:53;44.60;;;23.20;;
64907;SDS011;64365;-1.756;110.040;2022-12-11T08:32:19;47.13;;;22.85;;
64907;SDS011;64365;-1.756;110.040;2022-12-11T08:34:47;44.88;;;24.80;;
64907;SDS011;64365;-1.756;110.040;2022-12-11T08:37:16;49.38;;;23.65;;
64907;SDS011;64365;-1.756;110.040;2022-12-11T08:39:42;41.50;;;22.10;;
64907;SDS011;64365;-1.756;110.040;2022-12-11T08:42:10;47.75;;;21.88;;
64907;SDS011;64365;-1.756;110.040;2022-12-11T08:44:37;42.13;;;21.67;;
64907;SDS011;64365;-1.756;110.040;2022-12-11T08:47:04;47.90;;;23.60;;
64907;SDS011;64365;-1.756;110.040;2022-12-11T08:49:30;41.67;;;21.38;;
64907;SDS011;64365;-1.756;110.040;2022-12-11T08:51:58;48.08;;;25.55;;
64907;SDS011;64365;-1.756;110.040;2022-12-11T08:54:25;43.72;;;24.08;;
64907;SDS011;64365;-1.756;110.040;2022-12-11T08:56:51;51.65;;;24.23;;
64907;SDS011;64365;-1.756;110.040;2022-12-11T08:59:18;47.72;;;23.98;;
64907;SDS011;64365;-1.756;110.040;2022-12-11T09:01:45;46.35;;;23.40;;
64907;SDS011;64365;-1.756;110.040;2022-12-11T09:04:11;48.20;;;23.92;;
64907;SDS011;64365;-1.756;110.040;2022-12-11T09:06:38;46.15;;;23.67;;
64907;SDS011;64365;-1.756;110.040;2022-12-11T09:09:08;44.78;;;25.17;;
64907;SDS011;64365;-1.756;110.040;2022-12-11T09:11:35;44.28;;;23.35;;
64907;SDS011;64365;-1.756;110.040;2022-12-11T09:14:03;44.85;;;24.42;;
64907;SDS011;64365;-1.756;110.040;2022-12-11T09:16:30;43.97;;;24.10;;
64907;SDS011;64365;-1.756;110.040;2022-12-11T09:18:58;40.63;;;22.08;;
64907;SDS011;64365;-1.756;110.040;2022-12-11T09:21:25;44.65;;;23.38;;
64907;SDS011;64365;-1.756;110.040;2022-12-11T09:23:55;46.25;;;23.95;;
64907;SDS011;64365;-1.756;110.040;2022-12-11T09:26:25;45.50;;;23.67;;
64907;SDS011;64365;-1.756;110.040;2022-12-11T09:28:53;41.50;;;23.20;;
64907;SDS011;64365;-1.756;110.040;2022-12-11T09:31:21;40.40;;;23.65;;
64907;SDS011;64365;-1.756;110.040;2022-12-11T09:33:49;43.60;;;21.40;;
64907;SDS011;64365;-1.756;110.040;2022-12-11T09:36:16;41.10;;;21.30;;
64907;SDS011;64365;-1.756;110.040;2022-12-11T09:38:44;41.42;;;22.48;;
64907;SDS011;64365;-1.756;110.040;2022-12-11T09:41:31;39.03;;;21.67;;
64907;SDS011;64365;-1.756;110.040;2022-12-11T09:44:02;45.17;;;24.35;;
64907;SDS011;64365;-1.756;110.040;2022-12-11T09:46:41;40.17;;;22.40;;
64907;SDS011;64365;-1.756;110.040;2022-12-11T09:49:11;39.45;;;21.92;;
64907;SDS011;64365;-1.756;110.040;2022-12-11T09:51:46;43.40;;;23.65;;
64907;SDS011;64365;-1.756;110.040;2022-12-11T09:54:17;39.78;;;22.08;;
64907;SDS011;64365;-1.756;110.040;2022-12-11T09:56:46;45.90;;;25.38;;
64907;SDS011;64365;-1.756;110.040;2022-12-11T09:59:21;45.30;;;24.73;;
64907;SDS011;64365;-1.756;110.040;2022-12-11T10:01:54;44.55;;;25.27;;
64907;SDS011;64365;-1.756;110.040;2022-12-11T10:04:34;43.67;;;24.08;;
64907;SDS011;64365;-1.756;110.040;2022-12-11T10:07:10;42.78;;;24.88;;
64907;SDS011;64365;-1.756;110.040;2022-12-11T10:09:42;48.42;;;24.70;;
64907;SDS011;64365;-1.756;110.040;2022-12-11T10:12:19;45.72;;;25.95;;
64907;SDS011;64365;-1.756;110.040;2022-12-11T10:15:00;40.72;;;22.33;;
64907;SDS011;64365;-1.756;110.040;2022-12-11T10:17:41;42.45;;;23.40;;
64907;SDS011;64365;-1.756;110.040;2022-12-11T10:20:14;43.25;;;24.25;;
64907;SDS011;64365;-1.756;110.040;2022-12-11T10:22:46;48.75;;;26.33;;
64907;SDS011;64365;-1.756;110.040;2022-12-11T10:25:17;45.38;;;23.00;;
64907;SDS011;64365;-1.756;110.040;2022-12-11T10:27:47;42.17;;;22.85;;
64907;SDS011;64365;-1.756;110.040;2022-12-11T10:30:15;45.90;;;25.65;;
64907;SDS011;64365;-1.756;110.040;2022-12-11T10:32:47;45.03;;;23.85;;
64907;SDS011;64365;-1.756;110.040;2022-12-11T10:35:18;48.58;;;24.65;;
64907;SDS011;64365;-1.756;110.040;2022-12-11T10:37:54;49.65;;;25.40;;
64907;SDS011;64365;-1.756;110.040;2022-12-11T10:40:23;50.70;;;26.42;;
64907;SDS011;64365;-1.756;110.040;2022-12-11T10:42:53;42.22;;;22.38;;
64907;SDS011;64365;-1.756;110.040;2022-12-11T10:45:19;44.03;;;22.90;;
64907;SDS011;64365;-1.756;110.040;2022-12-11T10:47:46;47.30;;;25.13;;
64907;SDS011;64365;-1.756;110.040;2022-12-11T10:50:21;44.80;;;23.58;;
64907;SDS011;64365;-1.756;110.040;2022-12-11T10:52:49;44.97;;;22.10;;
64907;SDS011;64365;-1.756;110.040;2022-12-11T10:55:17;43.17;;;25.17;;
64907;SDS011;64365;-1.756;110.040;2022-12-11T10:57:54;46.90;;;25.17;;
64907;SDS011;64365;-1.756;110.040;2022-12-11T11:00:33;42.95;;;23.48;;
64907;SDS011;64365;-1.756;110.040;2022-12-11T11:03:03;44.60;;;24.45;;
64907;SDS011;64365;-1.756;110.040;2022-12-11T11:05:33;44.80;;;22.77;;
64907;SDS011;64365;-1.756;110.040;2022-12-11T11:08:02;41.47;;;22.40;;
64907;SDS011;64365;-1.756;110.040;2022-12-11T11:10:36;50.05;;;23.80;;
64907;SDS011;64365;-1.756;110.040;2022-12-11T11:13:04;39.17;;;22.90;;
64907;SDS011;64365;-1.756;110.040;2022-12-11T11:15:30;44.92;;;23.05;;
64907;SDS011;64365;-1.756;110.040;2022-12-11T11:18:02;45.03;;;23.52;;
64907;SDS011;64365;-1.756;110.040;2022-12-11T11:20:42;45.75;;;23.83;;
64907;SDS011;64365;-1.756;110.040;2022-12-11T11:23:13;44.88;;;23.05;;
64907;SDS011;64365;-1.756;110.040;2022-12-11T11:25:47;43.67;;;23.65;;
64907;SDS011;64365;-1.756;110.040;2022-12-11T11:28:18;46.72;;;25.00;;
64907;SDS011;64365;-1.756;110.040;2022-12-11T11:30:58;45.92;;;25.27;;
64907;SDS011;64365;-1.756;110.040;2022-12-11T11:33:27;41.97;;;23.17;;
64907;SDS011;64365;-1.756;110.040;2022-12-11T11:35:55;48.67;;;23.48;;
64907;SDS011;64365;-1.756;110.040;2022-12-11T11:38:25;41.95;;;21.52;;
64907;SDS011;64365;-1.756;110.040;2022-12-11T11:40:58;46.88;;;24.17;;
64907;SDS011;64365;-1.756;110.040;2022-12-11T11:43:35;42.65;;;22.90;;
64907;SDS011;64365;-1.756;110.040;2022-12-11T11:46:07;42.70;;;22.35;;
64907;SDS011;64365;-1.756;110.040;2022-12-11T11:48:43;41.45;;;22.80;;
64907;SDS011;64365;-1.756;110.040;2022-12-11T11:51:17;42.28;;;22.83;;
64907;SDS011;64365;-1.756;110.040;2022-12-11T11:53:50;39.53;;;21.55;;
64907;SDS011;64365;-1.756;110.040;2022-12-11T11:56:21;35.88;;;19.55;;
64907;SDS011;64365;-1.756;110.040;2022-12-11T11:58:54;41.63;;;23.42;;
64907;SDS011;64365;-1.756;110.040;2022-12-11T12:01:28;38.72;;;20.63;;
64907;SDS011;64365;-1.756;110.040;2022-12-11T12:03:55;45.33;;;23.23;;
64907;SDS011;64365;-1.756;110.040;2022-12-11T12:06:25;47.55;;;22.08;;
64907;SDS011;64365;-1.756;110.040;2022-12-11T12:09:02;37.53;;;20.27;;
64907;SDS011;64365;-1.756;110.040;2022-12-11T12:11:41;39.70;;;21.15;;
64907;SDS011;64365;-1.756;110.040;2022-12-11T12:14:16;37.65;;;20.05;;
64907;SDS011;64365;-1.756;110.040;2022-12-11T12:16:51;38.33;;;20.40;;
64907;SDS011;64365;-1.756;110.040;2022-12-11T12:19:34;35.75;;;19.25;;
64907;SDS011;64365;-1.756;110.040;2022-12-11T12:22:12;39.00;;;21.90;;
64907;SDS011;64365;-1.756;110.040;2022-12-11T12:24:53;37.13;;;19.45;;
64907;SDS011;64365;-1.756;110.040;2022-12-11T12:27:30;33.88;;;19.27;;
64907;SDS011;64365;-1.756;110.040;2022-12-11T12:30:06;38.95;;;21.58;;
64907;SDS011;64365;-1.756;110.040;2022-12-11T12:32:38;39.60;;;21.02;;
64907;SDS011;64365;-1.756;110.040;2022-12-11T12:35:26;39.33;;;21.45;;
64907;SDS011;64365;-1.756;110.040;2022-12-11T12:38:01;35.05;;;19.88;;
64907;SDS011;64365;-1.756;110.040;2022-12-11T12:40:33;40.40;;;20.90;;
64907;SDS011;64365;-1.756;110.040;2022-12-11T12:43:21;35.90;;;19.77;;
64907;SDS011;64365;-1.756;110.040;2022-12-11T12:46:09;41.08;;;23.20;;
64907;SDS011;64365;-1.756;110.040;2022-12-11T12:48:46;42.25;;;21.35;;
64907;SDS011;64365;-1.756;110.040;2022-12-11T12:51:13;41.47;;;22.38;;
64907;SDS011;64365;-1.756;110.040;2022-12-11T12:53:42;40.53;;;21.98;;
64907;SDS011;64365;-1.756;110.040;2022-12-11T12:56:13;38.70;;;20.13;;
64907;SDS011;64365;-1.756;110.040;2022-12-11T12:58:41;60.92;;;31.35;;
64907;SDS011;64365;-1.756;110.040;2022-12-11T13:01:15;48.88;;;25.33;;
64907;SDS011;64365;-1.756;110.040;2022-12-11T13:03:49;39.53;;;21.40;;
64907;SDS011;64365;-1.756;110.040;2022-12-11T13:06:26;43.15;;;21.63;;
64907;SDS011;64365;-1.756;110.040;2022-12-11T13:08:56;38.67;;;21.73;;
64907;SDS011;64365;-1.756;110.040;2022-12-11T13:11:29;32.63;;;19.13;;
64907;SDS011;64365;-1.756;110.040;2022-12-11T13:14:00;44.30;;;22.88;;
64907;SDS011;64365;-1.756;110.040;2022-12-11T13:16:35;36.97;;;20.42;;
64907;SDS011;64365;-1.756;110.040;2022-12-11T13:19:14;32.88;;;18.33;;
64907;SDS011;64365;-1.756;110.040;2022-12-11T13:21:42;39.35;;;20.13;;
64907;SDS011;64365;-1.756;110.040;2022-12-11T13:24:23;34.13;;;18.50;;
64907;SDS011;64365;-1.756;110.040;2022-12-11T13:26:51;38.30;;;20.95;;
64907;SDS011;64365;-1.756;110.040;2022-12-11T13:29:29;38.15;;;20.77;;
64907;SDS011;64365;-1.756;110.040;2022-12-11T13:32:00;38.75;;;20.58;;
64907;SDS011;64365;-1.756;110.040;2022-12-11T13:34:30;40.35;;;21.30;;
64907;SDS011;64365;-1.756;110.040;2022-12-11T13:36:58;36.20;;;20.40;;
64907;SDS011;64365;-1.756;110.040;2022-12-11T13:39:28;39.00;;;20.50;;
64907;SDS011;64365;-1.756;110.040;2022-12-11T13:41:56;38.30;;;19.80;;
64907;SDS011;64365;-1.756;110.040;2022-12-11T13:44:29;39.40;;;22.38;;
64907;SDS011;64365;-1.756;110.040;2022-12-11T13:47:00;36.67;;;19.75;;
64907;SDS011;64365;-1.756;110.040;2022-12-11T13:49:29;38.85;;;20.77;;
64907;SDS011;64365;-1.756;110.040;2022-12-11T13:52:01;34.90;;;19.92;;
64907;SDS011;64365;-1.756;110.040;2022-12-11T13:54:28;38.65;;;20.98;;
64907;SDS011;64365;-1.756;110.040;2022-12-11T13:56:57;42.28;;;20.92;;
64907;SDS011;64365;-1.756;110.040;2022-12-11T13:59:26;40.72;;;21.63;;
64907;SDS011;64365;-1.756;110.040;2022-12-11T14:01:56;45.35;;;24.08;;
64907;SDS011;64365;-1.756;110.040;2022-12-11T14:04:27;44.03;;;21.08;;
64907;SDS011;64365;-1.756;110.040;2022-12-11T14:06:56;45.40;;;22.35;;
64907;SDS011;64365;-1.756;110.040;2022-12-11T14:09:24;45.92;;;24.52;;
64907;SDS011;64365;-1.756;110.040;2022-12-11T14:11:52;39.95;;;22.60;;
64907;SDS011;64365;-1.756;110.040;2022-12-11T14:14:24;50.08;;;25.15;;
64907;SDS011;64365;-1.756;110.040;2022-12-11T14:17:01;43.55;;;22.15;;
64907;SDS011;64365;-1.756;110.040;2022-12-11T14:19:28;45.40;;;24.00;;